createdAt,value
2019-01-19T00:00:47.059Z,0.00
2019-01-19T00:01:47.047Z,0.00
2019-01-19T00:02:47.045Z,0.00
2019-01-19T00:03:47.022Z,0.00
2019-01-19T00:04:47.007Z,0.00
2019-01-19T00:05:46.996Z,0.00
2019-01-19T00:06:46.981Z,0.00
2019-01-19T00:07:46.970Z,0.00
2019-01-19T00:08:46.956Z,0.00
2019-01-19T00:09:46.944Z,0.00
2019-01-19T00:10:46.929Z,0.00
2019-01-19T00:11:46.918Z,0.00
2019-01-19T00:12:46.904Z,0.00
2019-01-19T00:13:46.892Z,0.00
2019-01-19T00:14:46.878Z,0.00
2019-01-19T00:15:47.018Z,0.00
2019-01-19T00:16:46.852Z,0.00
2019-01-19T00:17:46.841Z,0.00
2019-01-19T00:18:46.826Z,0.00
2019-01-19T00:19:46.816Z,0.00
2019-01-19T00:20:46.802Z,0.00
2019-01-19T00:21:46.789Z,0.00
2019-01-19T00:22:46.774Z,0.00
2019-01-19T00:23:46.765Z,0.00
2019-01-19T00:24:46.749Z,0.00
2019-01-19T00:25:46.738Z,0.00
2019-01-19T00:26:46.723Z,0.00
2019-01-19T00:27:46.712Z,0.00
2019-01-19T00:28:46.698Z,0.00
2019-01-19T00:29:46.686Z,0.00
2019-01-19T00:30:46.672Z,0.00
2019-01-19T00:31:46.661Z,0.00
2019-01-19T00:32:46.646Z,0.00
2019-01-19T00:33:46.634Z,0.00
2019-01-19T00:34:46.619Z,0.00
2019-01-19T00:35:46.610Z,0.00
2019-01-19T00:36:46.594Z,0.00
2019-01-19T00:37:46.583Z,0.00
2019-01-19T00:38:46.570Z,0.00
2019-01-19T00:39:46.559Z,0.00
2019-01-19T00:40:46.553Z,0.00
2019-01-19T00:41:46.532Z,0.00
2019-01-19T00:42:46.520Z,0.00
2019-01-19T00:43:46.507Z,0.00
2019-01-19T00:44:46.494Z,0.00
2019-01-19T00:45:46.479Z,0.00
2019-01-19T00:46:46.475Z,0.00
2019-01-19T00:47:46.460Z,0.00
2019-01-19T00:48:46.441Z,0.00
2019-01-19T00:49:46.430Z,0.00
2019-01-19T00:50:46.413Z,0.00
2019-01-19T00:51:46.405Z,0.00
2019-01-19T00:52:46.399Z,0.00
2019-01-19T00:53:46.377Z,0.00
2019-01-19T00:54:46.361Z,0.00
2019-01-19T00:55:46.351Z,0.00
2019-01-19T00:56:46.337Z,0.00
2019-01-19T00:57:46.324Z,0.00
2019-01-19T00:58:46.311Z,0.00
2019-01-19T00:59:46.304Z,0.00
2019-01-19T01:00:46.284Z,0.00
2019-01-19T01:01:46.273Z,0.00
2019-01-19T01:02:46.258Z,0.00
2019-01-19T01:03:46.247Z,0.00
2019-01-19T01:04:46.240Z,0.00
2019-01-19T01:05:46.222Z,0.00
2019-01-19T01:06:46.207Z,0.00
2019-01-19T01:07:46.196Z,0.00
2019-01-19T01:08:46.185Z,0.00
2019-01-19T01:09:46.185Z,0.00
2019-01-19T01:10:46.161Z,0.00
2019-01-19T01:11:46.144Z,0.00
2019-01-19T01:12:46.130Z,0.00
2019-01-19T01:13:46.123Z,0.00
2019-01-19T01:14:46.103Z,0.00
2019-01-19T01:15:46.093Z,0.00
2019-01-19T01:16:46.078Z,0.00
2019-01-19T01:17:46.067Z,0.00
2019-01-19T01:18:46.052Z,0.00
2019-01-19T01:19:46.044Z,0.00
2019-01-19T01:20:46.027Z,0.00
2019-01-19T01:21:46.015Z,0.00
2019-01-19T01:22:46.001Z,0.00
2019-01-19T01:23:45.996Z,0.00
2019-01-19T01:24:45.976Z,0.00
2019-01-19T01:25:45.964Z,0.00
2019-01-19T01:26:45.950Z,0.00
2019-01-19T01:27:45.940Z,0.00
2019-01-19T01:28:45.925Z,0.00
2019-01-19T01:29:45.913Z,0.00
2019-01-19T01:30:45.902Z,0.00
2019-01-19T01:31:45.888Z,0.00
2019-01-19T01:32:45.873Z,0.00
2019-01-19T01:33:45.862Z,0.00
2019-01-19T01:34:45.848Z,0.00
2019-01-19T01:35:45.838Z,0.00
2019-01-19T01:36:45.825Z,0.00
2019-01-19T01:37:45.810Z,0.00
2019-01-19T01:38:45.800Z,0.00
2019-01-19T01:39:45.785Z,0.00
2019-01-19T01:40:45.775Z,0.00
2019-01-19T01:41:45.760Z,0.00
2019-01-19T01:42:45.743Z,0.00
2019-01-19T01:43:45.743Z,0.00
2019-01-19T01:44:45.718Z,0.00
2019-01-19T01:45:45.708Z,0.00
2019-01-19T01:46:45.691Z,0.00
2019-01-19T01:47:45.681Z,0.00
2019-01-19T01:48:45.676Z,0.00
2019-01-19T01:49:45.655Z,0.00
2019-01-19T01:50:45.642Z,0.00
2019-01-19T01:51:45.628Z,0.00
2019-01-19T01:52:45.613Z,0.00
2019-01-19T01:53:45.602Z,0.00
2019-01-19T01:54:45.587Z,0.00
2019-01-19T01:55:45.577Z,0.00
2019-01-19T01:56:45.561Z,0.00
2019-01-19T01:57:45.553Z,0.00
2019-01-19T01:58:45.536Z,0.00
2019-01-19T01:59:45.525Z,0.00
2019-01-19T02:00:45.509Z,0.00
2019-01-19T02:01:45.499Z,0.00
2019-01-19T02:02:45.483Z,0.00
2019-01-19T02:03:45.473Z,0.00
2019-01-19T02:04:45.458Z,0.00
2019-01-19T02:05:45.446Z,0.00
2019-01-19T02:06:45.432Z,0.00
2019-01-19T02:07:45.421Z,0.00
2019-01-19T02:08:45.405Z,0.00
2019-01-19T02:09:45.394Z,0.00
2019-01-19T02:10:45.380Z,0.00
2019-01-19T02:11:45.370Z,0.00
2019-01-19T02:12:45.355Z,0.00
2019-01-19T02:13:45.344Z,0.00
2019-01-19T02:14:45.330Z,0.00
2019-01-19T02:15:45.321Z,0.00
2019-01-19T02:16:45.318Z,0.00
2019-01-19T02:17:45.292Z,0.00
2019-01-19T02:18:45.278Z,0.00
2019-01-19T02:19:45.267Z,0.00
2019-01-19T02:20:45.260Z,0.00
2019-01-19T02:21:45.240Z,0.00
2019-01-19T02:22:45.225Z,0.00
2019-01-19T02:23:45.217Z,0.00
2019-01-19T02:24:45.205Z,0.00
2019-01-19T02:25:45.189Z,0.00
2019-01-19T02:26:45.175Z,0.00
2019-01-19T02:27:45.165Z,0.00
2019-01-19T02:28:45.153Z,0.00
2019-01-19T02:29:45.138Z,0.00
2019-01-19T02:30:45.122Z,0.00
2019-01-19T02:31:45.115Z,0.00
2019-01-19T02:32:45.098Z,0.00
2019-01-19T02:33:45.086Z,0.00
2019-01-19T02:34:45.071Z,0.00
2019-01-19T02:35:48.605Z,0.00
2019-01-19T02:36:45.050Z,0.00
2019-01-19T02:37:45.036Z,0.00
2019-01-19T02:38:45.021Z,0.00
2019-01-19T02:39:45.009Z,0.00
2019-01-19T02:40:44.997Z,0.00
2019-01-19T02:41:44.984Z,0.00
2019-01-19T02:42:44.968Z,0.00
2019-01-19T02:43:44.958Z,0.00
2019-01-19T02:44:44.961Z,0.00
2019-01-19T02:45:44.931Z,0.00
2019-01-19T02:46:44.922Z,0.00
2019-01-19T02:47:44.910Z,0.00
2019-01-19T02:48:44.893Z,0.00
2019-01-19T02:49:44.880Z,0.00
2019-01-19T02:50:44.870Z,0.00
2019-01-19T02:51:44.855Z,0.00
2019-01-19T02:52:44.840Z,0.00
2019-01-19T02:53:44.829Z,0.00
2019-01-19T02:54:44.813Z,0.00
2019-01-19T02:55:44.808Z,0.00
2019-01-19T02:56:44.793Z,0.00
2019-01-19T02:57:44.778Z,0.00
2019-01-19T02:58:44.762Z,0.00
2019-01-19T02:59:44.750Z,0.00
2019-01-19T03:00:44.739Z,0.00
2019-01-19T03:01:44.723Z,0.00
2019-01-19T03:02:44.712Z,0.00
2019-01-19T03:03:44.697Z,0.00
2019-01-19T03:04:44.937Z,0.00
2019-01-19T03:05:44.671Z,0.00
2019-01-19T03:06:44.662Z,0.00
2019-01-19T03:07:44.645Z,0.00
2019-01-19T03:08:44.635Z,0.00
2019-01-19T03:09:44.620Z,0.00
2019-01-19T03:10:44.608Z,0.00
2019-01-19T03:11:44.594Z,0.00
2019-01-19T03:12:44.583Z,0.00
2019-01-19T03:13:44.567Z,0.00
2019-01-19T03:14:44.558Z,0.00
2019-01-19T03:15:44.543Z,0.00
2019-01-19T03:16:44.532Z,0.00
2019-01-19T03:17:44.518Z,0.00
2019-01-19T03:18:44.510Z,0.00
2019-01-19T03:19:44.491Z,0.00
2019-01-19T03:20:44.481Z,0.00
2019-01-19T03:21:44.765Z,0.00
2019-01-19T03:22:44.455Z,0.00
2019-01-19T03:23:44.443Z,0.00
2019-01-19T03:24:44.432Z,0.00
2019-01-19T03:25:44.417Z,0.00
2019-01-19T03:26:44.408Z,0.00
2019-01-19T03:27:44.400Z,0.00
2019-01-19T03:28:44.379Z,0.00
2019-01-19T03:29:44.363Z,0.00
2019-01-19T03:30:44.365Z,0.00
2019-01-19T03:31:44.341Z,0.00
2019-01-19T03:32:44.356Z,0.00
2019-01-19T03:33:44.317Z,0.00
2019-01-19T03:34:44.452Z,0.00
2019-01-19T03:35:44.288Z,0.00
2019-01-19T03:36:44.278Z,0.00
2019-01-19T03:37:44.262Z,0.00
2019-01-19T03:38:44.252Z,0.00
2019-01-19T03:39:44.237Z,0.00
2019-01-19T03:40:44.227Z,0.00
2019-01-19T03:41:44.213Z,0.00
2019-01-19T03:42:44.204Z,0.00
2019-01-19T03:43:44.187Z,0.00
2019-01-19T03:44:44.176Z,0.00
2019-01-19T03:45:44.162Z,0.00
2019-01-19T03:46:44.151Z,0.00
2019-01-19T03:47:44.136Z,0.00
2019-01-19T03:48:44.126Z,0.00
2019-01-19T03:49:44.112Z,0.00
2019-01-19T03:50:44.099Z,0.00
2019-01-19T03:51:44.086Z,0.00
2019-01-19T03:52:44.076Z,0.00
2019-01-19T03:53:44.059Z,0.00
2019-01-19T03:54:44.049Z,0.00
2019-01-19T03:55:44.037Z,0.00
2019-01-19T03:56:44.025Z,0.00
2019-01-19T03:57:44.009Z,0.00
2019-01-19T03:58:44.008Z,0.00
2019-01-19T03:59:43.984Z,0.00
2019-01-19T04:00:43.975Z,0.00
2019-01-19T04:01:43.959Z,0.00
2019-01-19T04:02:43.950Z,0.00
2019-01-19T04:03:43.934Z,0.00
2019-01-19T04:04:43.925Z,0.00
2019-01-19T04:05:43.919Z,0.00
2019-01-19T04:06:43.897Z,0.00
2019-01-19T04:07:43.886Z,0.00
2019-01-19T04:08:43.875Z,0.00
2019-01-19T04:09:43.856Z,0.00
2019-01-19T04:10:43.846Z,0.00
2019-01-19T04:11:43.831Z,0.00
2019-01-19T04:12:43.824Z,0.00
2019-01-19T04:13:43.807Z,0.00
2019-01-19T04:14:43.801Z,0.00
2019-01-19T04:15:43.780Z,0.00
2019-01-19T04:16:43.774Z,0.00
2019-01-19T04:17:43.756Z,0.00
2019-01-19T04:18:43.744Z,0.00
2019-01-19T04:19:43.730Z,0.00
2019-01-19T04:20:43.720Z,0.00
2019-01-19T04:21:43.703Z,0.00
2019-01-19T04:22:43.693Z,0.00
2019-01-19T04:23:43.680Z,0.00
2019-01-19T04:24:43.668Z,0.00
2019-01-19T04:25:43.653Z,0.00
2019-01-19T04:26:43.642Z,0.00
2019-01-19T04:27:43.630Z,0.00
2019-01-19T04:28:43.617Z,0.00
2019-01-19T04:29:43.601Z,0.00
2019-01-19T04:30:43.592Z,0.00
2019-01-19T04:31:43.614Z,0.00
2019-01-19T04:32:43.582Z,0.00
2019-01-19T04:33:43.550Z,0.00
2019-01-19T04:34:43.540Z,0.00
2019-01-19T04:35:43.525Z,0.00
2019-01-19T04:36:43.517Z,0.00
2019-01-19T04:37:43.502Z,0.00
2019-01-19T04:38:43.489Z,0.00
2019-01-19T04:39:43.481Z,0.00
2019-01-19T04:40:43.464Z,0.00
2019-01-19T04:41:43.446Z,0.00
2019-01-19T04:42:43.446Z,0.00
2019-01-19T04:43:43.425Z,0.00
2019-01-19T04:44:43.410Z,0.00
2019-01-19T04:45:43.394Z,0.00
2019-01-19T04:46:43.384Z,0.00
2019-01-19T04:47:43.368Z,0.00
2019-01-19T04:48:43.357Z,0.00
2019-01-19T04:49:43.346Z,0.00
2019-01-19T04:50:43.332Z,0.00
2019-01-19T04:51:43.317Z,0.00
2019-01-19T04:52:43.305Z,0.00
2019-01-19T04:53:43.291Z,0.00
2019-01-19T04:54:43.279Z,0.00
2019-01-19T04:55:43.263Z,0.00
2019-01-19T04:56:43.252Z,0.00
2019-01-19T04:57:43.236Z,0.00
2019-01-19T04:58:43.225Z,0.00
2019-01-19T04:59:43.211Z,0.00
2019-01-19T05:00:43.201Z,0.00
2019-01-19T05:01:43.184Z,0.00
2019-01-19T05:02:43.174Z,0.00
2019-01-19T05:03:43.158Z,0.00
2019-01-19T05:04:43.151Z,0.00
2019-01-19T05:05:43.136Z,0.00
2019-01-19T05:06:43.122Z,0.00
2019-01-19T05:07:43.106Z,0.00
2019-01-19T05:08:43.098Z,0.00
2019-01-19T05:09:43.079Z,0.00
2019-01-19T05:10:43.069Z,0.00
2019-01-19T05:11:43.054Z,0.00
2019-01-19T05:12:43.043Z,0.00
2019-01-19T05:13:43.030Z,0.00
2019-01-19T05:14:43.017Z,0.00
2019-01-19T05:15:43.002Z,0.00
2019-01-19T05:16:42.993Z,0.00
2019-01-19T05:17:42.975Z,0.00
2019-01-19T05:18:42.965Z,0.00
2019-01-19T05:19:42.949Z,0.00
2019-01-19T05:20:42.939Z,0.00
2019-01-19T05:21:42.924Z,0.00
2019-01-19T05:22:42.912Z,0.00
2019-01-19T05:23:42.898Z,0.00
2019-01-19T05:24:42.887Z,0.00
2019-01-19T05:25:42.872Z,0.00
2019-01-19T05:26:42.861Z,0.00
2019-01-19T05:27:42.849Z,0.00
2019-01-19T05:28:42.835Z,0.00
2019-01-19T05:29:42.822Z,0.00
2019-01-19T05:30:42.808Z,0.00
2019-01-19T05:31:42.792Z,0.00
2019-01-19T05:32:42.782Z,0.00
2019-01-19T05:33:42.766Z,0.00
2019-01-19T05:34:42.756Z,0.00
2019-01-19T05:35:42.740Z,0.00
2019-01-19T05:36:42.729Z,0.00
2019-01-19T05:37:42.714Z,0.00
2019-01-19T05:38:42.703Z,0.00
2019-01-19T05:39:42.699Z,0.00
2019-01-19T05:40:42.677Z,0.00
2019-01-19T05:41:42.660Z,0.00
2019-01-19T05:42:42.656Z,0.00
2019-01-19T05:43:42.634Z,0.00
2019-01-19T05:44:42.625Z,0.00
2019-01-19T05:45:42.606Z,0.00
2019-01-19T05:46:42.596Z,0.00
2019-01-19T05:47:42.618Z,0.00
2019-01-19T05:48:42.570Z,0.00
2019-01-19T05:49:42.563Z,0.00
2019-01-19T05:50:42.552Z,0.00
2019-01-19T05:51:42.527Z,0.00
2019-01-19T05:52:42.517Z,0.00
2019-01-19T05:53:42.502Z,0.00
2019-01-19T05:54:42.507Z,0.00
2019-01-19T05:55:42.474Z,0.00
2019-01-19T05:56:42.463Z,0.00
2019-01-19T05:57:42.448Z,0.00
2019-01-19T05:58:42.435Z,0.00
2019-01-19T05:59:42.420Z,0.00
2019-01-19T06:00:42.410Z,0.00
2019-01-19T06:01:42.393Z,0.00
2019-01-19T06:02:42.383Z,0.00
2019-01-19T06:03:42.368Z,0.00
2019-01-19T06:04:42.359Z,0.00
2019-01-19T06:05:42.340Z,0.00
2019-01-19T06:06:47.044Z,0.00
2019-01-19T06:07:42.315Z,0.00
2019-01-19T06:08:42.305Z,0.00
2019-01-19T06:09:42.315Z,0.00
2019-01-19T06:10:42.279Z,0.00
2019-01-19T06:11:42.262Z,0.00
2019-01-19T06:12:42.253Z,0.00
2019-01-19T06:13:42.239Z,0.00
2019-01-19T06:14:42.224Z,0.00
2019-01-19T06:15:42.209Z,0.00
2019-01-19T06:16:42.198Z,0.00
2019-01-19T06:17:42.182Z,0.00
2019-01-19T06:18:42.173Z,0.00
2019-01-19T06:19:42.156Z,0.00
2019-01-19T06:20:42.146Z,0.00
2019-01-19T06:21:42.129Z,0.00
2019-01-19T06:22:42.119Z,0.00
2019-01-19T06:23:42.104Z,0.00
2019-01-19T06:24:42.094Z,0.00
2019-01-19T06:25:42.079Z,0.00
2019-01-19T06:26:42.066Z,0.00
2019-01-19T06:27:42.050Z,0.00
2019-01-19T06:28:42.041Z,0.00
2019-01-19T06:29:42.025Z,0.00
2019-01-19T06:30:42.014Z,0.00
2019-01-19T06:31:41.998Z,0.00
2019-01-19T06:32:41.990Z,0.00
2019-01-19T06:33:41.977Z,0.00
2019-01-19T06:34:41.961Z,0.00
2019-01-19T06:35:41.947Z,0.00
2019-01-19T06:36:41.943Z,0.00
2019-01-19T06:37:41.919Z,0.00
2019-01-19T06:38:41.908Z,0.00
2019-01-19T06:39:41.919Z,0.00
2019-01-19T06:40:41.883Z,0.00
2019-01-19T06:41:41.866Z,0.00
2019-01-19T06:42:41.855Z,0.00
2019-01-19T06:43:41.840Z,0.00
2019-01-19T06:44:41.830Z,0.00
2019-01-19T06:45:41.817Z,0.00
2019-01-19T06:46:41.802Z,0.00
2019-01-19T06:47:41.787Z,0.00
2019-01-19T06:48:41.777Z,0.00
2019-01-19T06:49:41.760Z,0.00
2019-01-19T06:50:41.750Z,0.00
2019-01-19T06:51:41.735Z,0.00
2019-01-19T06:52:41.724Z,0.00
2019-01-19T06:53:41.708Z,0.00
2019-01-19T06:54:41.699Z,0.00
2019-01-19T06:55:41.682Z,0.00
2019-01-19T06:56:41.674Z,0.00
2019-01-19T06:57:41.656Z,0.00
2019-01-19T06:58:41.647Z,0.00
2019-01-19T06:59:41.646Z,0.00
2019-01-19T07:00:41.622Z,0.00
2019-01-19T07:01:41.603Z,0.00
2019-01-19T07:02:43.159Z,0.00
2019-01-19T07:03:41.588Z,0.00
2019-01-19T07:04:41.570Z,0.00
2019-01-19T07:05:41.552Z,0.00
2019-01-19T07:06:41.540Z,0.00
2019-01-19T07:07:41.525Z,0.00
2019-01-19T07:08:41.515Z,0.00
2019-01-19T07:09:41.498Z,0.00
2019-01-19T07:10:41.487Z,0.00
2019-01-19T07:11:41.472Z,0.00
2019-01-19T07:12:41.462Z,0.00
2019-01-19T07:13:41.447Z,0.00
2019-01-19T07:14:41.435Z,0.00
2019-01-19T07:15:41.423Z,0.00
2019-01-19T07:16:41.407Z,0.00
2019-01-19T07:17:41.395Z,0.00
2019-01-19T07:18:41.383Z,0.00
2019-01-19T07:19:41.372Z,0.00
2019-01-19T07:20:41.355Z,0.00
2019-01-19T07:21:41.343Z,0.00
2019-01-19T07:22:41.327Z,0.00
2019-01-19T07:23:41.317Z,0.00
2019-01-19T07:24:41.302Z,0.00
2019-01-19T07:25:41.293Z,5.63
2019-01-19T07:26:41.276Z,5.63
2019-01-19T07:27:41.264Z,5.63
2019-01-19T07:28:41.251Z,5.63
2019-01-19T07:29:41.238Z,5.63
2019-01-19T07:30:41.222Z,5.63
2019-01-19T07:31:41.212Z,5.63
2019-01-19T07:32:41.196Z,5.63
2019-01-19T07:33:41.186Z,5.63
2019-01-19T07:34:41.169Z,11.25
2019-01-19T07:35:41.158Z,11.25
2019-01-19T07:36:41.143Z,11.25
2019-01-19T07:37:41.131Z,11.25
2019-01-19T07:38:41.117Z,11.25
2019-01-19T07:39:41.106Z,11.25
2019-01-19T07:40:41.090Z,11.25
2019-01-19T07:41:41.078Z,11.25
2019-01-19T07:42:41.063Z,16.88
2019-01-19T07:43:41.052Z,16.88
2019-01-19T07:44:41.037Z,16.88
2019-01-19T07:45:41.025Z,16.88
2019-01-19T07:46:41.009Z,16.88
2019-01-19T07:47:40.999Z,16.88
2019-01-19T07:48:40.984Z,16.88
2019-01-19T07:49:40.972Z,22.50
2019-01-19T07:50:40.956Z,22.50
2019-01-19T07:51:40.945Z,22.50
2019-01-19T07:52:40.934Z,22.50
2019-01-19T07:53:40.919Z,22.50
2019-01-19T07:54:40.903Z,22.50
2019-01-19T07:55:40.892Z,28.13
2019-01-19T07:56:40.878Z,28.13
2019-01-19T07:57:40.866Z,28.13
2019-01-19T07:58:40.849Z,28.13
2019-01-19T07:59:40.839Z,28.13
2019-01-19T08:00:40.823Z,28.13
2019-01-19T08:01:40.811Z,33.75
2019-01-19T08:02:40.796Z,33.75
2019-01-19T08:03:40.785Z,33.75
2019-01-19T08:04:40.769Z,33.75
2019-01-19T08:05:40.757Z,33.75
2019-01-19T08:06:40.741Z,33.75
2019-01-19T08:07:40.744Z,39.38
2019-01-19T08:08:40.722Z,39.38
2019-01-19T08:09:40.703Z,39.38
2019-01-19T08:10:40.690Z,45.00
2019-01-19T08:11:40.676Z,45.00
2019-01-19T08:12:40.662Z,45.00
2019-01-19T08:13:40.669Z,45.00
2019-01-19T08:14:40.633Z,45.00
2019-01-19T08:15:40.623Z,45.00
2019-01-19T08:16:40.606Z,45.00
2019-01-19T08:17:40.601Z,45.00
2019-01-19T08:18:40.579Z,45.00
2019-01-19T08:19:40.567Z,45.00
2019-01-19T08:20:40.551Z,45.00
2019-01-19T08:21:40.539Z,50.63
2019-01-19T08:22:40.525Z,50.63
2019-01-19T08:23:40.513Z,50.63
2019-01-19T08:24:40.497Z,56.25
2019-01-19T08:25:40.484Z,56.25
2019-01-19T08:26:40.469Z,56.25
2019-01-19T08:27:40.457Z,56.25
2019-01-19T08:28:40.441Z,61.88
2019-01-19T08:29:40.429Z,61.88
2019-01-19T08:30:40.414Z,61.88
2019-01-19T08:31:40.404Z,61.88
2019-01-19T08:32:40.389Z,61.88
2019-01-19T08:33:40.375Z,61.88
2019-01-19T08:34:40.359Z,67.50
2019-01-19T08:35:40.348Z,67.50
2019-01-19T08:36:40.331Z,67.50
2019-01-19T08:37:40.319Z,67.50
2019-01-19T08:38:40.304Z,67.50
2019-01-19T08:39:40.293Z,73.13
2019-01-19T08:40:40.277Z,78.75
2019-01-19T08:41:40.265Z,90.00
2019-01-19T08:42:40.250Z,84.38
2019-01-19T08:43:40.238Z,84.38
2019-01-19T08:44:40.222Z,84.38
2019-01-19T08:45:40.214Z,84.38
2019-01-19T08:46:40.194Z,78.75
2019-01-19T08:47:40.183Z,73.13
2019-01-19T08:48:40.167Z,73.13
2019-01-19T08:49:40.156Z,73.13
2019-01-19T08:50:40.144Z,78.75
2019-01-19T08:51:40.128Z,73.13
2019-01-19T08:52:40.113Z,78.75
2019-01-19T08:53:40.101Z,78.75
2019-01-19T08:54:40.085Z,78.75
2019-01-19T08:55:40.074Z,84.38
2019-01-19T08:56:40.058Z,84.38
2019-01-19T08:57:40.046Z,90.00
2019-01-19T08:58:40.031Z,90.00
2019-01-19T08:59:40.020Z,90.00
2019-01-19T09:00:40.004Z,95.63
2019-01-19T09:01:39.994Z,95.63
2019-01-19T09:02:39.977Z,95.63
2019-01-19T09:03:39.967Z,101.25
2019-01-19T09:04:39.950Z,101.25
2019-01-19T09:05:39.939Z,101.25
2019-01-19T09:06:39.924Z,106.88
2019-01-19T09:07:39.913Z,101.25
2019-01-19T09:08:39.898Z,106.88
2019-01-19T09:09:40.039Z,112.50
2019-01-19T09:10:39.870Z,112.50
2019-01-19T09:11:39.861Z,118.13
2019-01-19T09:12:39.844Z,118.13
2019-01-19T09:13:39.833Z,112.50
2019-01-19T09:14:39.818Z,106.88
2019-01-19T09:15:39.808Z,123.75
2019-01-19T09:16:41.634Z,140.63
2019-01-19T09:17:39.798Z,140.63
2019-01-19T09:18:39.765Z,140.63
2019-01-19T09:19:39.754Z,123.75
2019-01-19T09:20:39.739Z,112.50
2019-01-19T09:21:39.740Z,118.13
2019-01-19T09:22:39.713Z,112.50
2019-01-19T09:23:39.702Z,112.50
2019-01-19T09:24:39.687Z,112.50
2019-01-19T09:25:39.677Z,112.50
2019-01-19T09:26:39.660Z,112.50
2019-01-19T09:27:39.649Z,112.50
2019-01-19T09:28:39.634Z,118.13
2019-01-19T09:29:39.622Z,123.75
2019-01-19T09:30:39.659Z,118.13
2019-01-19T09:31:39.597Z,118.13
2019-01-19T09:32:39.581Z,118.13
2019-01-19T09:33:39.570Z,123.75
2019-01-19T09:34:39.555Z,123.75
2019-01-19T09:35:39.545Z,129.38
2019-01-19T09:36:39.529Z,135.00
2019-01-19T09:37:40.858Z,135.00
2019-01-19T09:38:39.503Z,140.63
2019-01-19T09:39:39.742Z,146.25
2019-01-19T09:40:39.478Z,146.25
2019-01-19T09:41:39.465Z,140.63
2019-01-19T09:42:39.450Z,140.63
2019-01-19T09:43:39.439Z,140.63
2019-01-19T09:44:39.425Z,140.63
2019-01-19T09:45:39.415Z,146.25
2019-01-19T09:46:39.398Z,151.88
2019-01-19T09:47:39.388Z,174.38
2019-01-19T09:48:39.373Z,241.88
2019-01-19T09:49:39.362Z,326.25
2019-01-19T09:50:39.347Z,337.50
2019-01-19T09:51:39.336Z,354.38
2019-01-19T09:52:39.323Z,545.63
2019-01-19T09:53:39.311Z,495.00
2019-01-19T09:54:39.298Z,191.25
2019-01-19T09:55:39.286Z,185.63
2019-01-19T09:56:39.273Z,208.13
2019-01-19T09:57:39.263Z,185.63
2019-01-19T09:58:39.246Z,151.88
2019-01-19T09:59:39.236Z,146.25
2019-01-19T10:00:45.479Z,140.63
2019-01-19T10:01:39.211Z,140.63
2019-01-19T10:02:39.197Z,140.63
2019-01-19T10:03:39.187Z,146.25
2019-01-19T10:04:39.174Z,146.25
2019-01-19T10:05:39.162Z,151.88
2019-01-19T10:06:39.149Z,146.25
2019-01-19T10:07:39.143Z,146.25
2019-01-19T10:08:39.128Z,140.63
2019-01-19T10:09:39.113Z,140.63
2019-01-19T10:10:39.098Z,135.00
2019-01-19T10:11:39.089Z,140.63
2019-01-19T10:12:39.075Z,140.63
2019-01-19T10:13:39.064Z,140.63
2019-01-19T10:14:39.629Z,140.63
2019-01-19T10:15:39.040Z,140.63
2019-01-19T10:16:39.027Z,146.25
2019-01-19T10:17:39.016Z,146.25
2019-01-19T10:18:39.001Z,146.25
2019-01-19T10:19:38.991Z,140.63
2019-01-19T10:20:38.977Z,140.63
2019-01-19T10:21:38.967Z,140.63
2019-01-19T10:22:38.952Z,140.63
2019-01-19T10:23:38.947Z,146.25
2019-01-19T10:24:38.929Z,146.25
2019-01-19T10:25:38.918Z,163.13
2019-01-19T10:26:38.903Z,168.75
2019-01-19T10:27:38.894Z,157.50
2019-01-19T10:28:38.880Z,157.50
2019-01-19T10:29:38.879Z,157.50
2019-01-19T10:30:38.855Z,157.50
2019-01-19T10:31:38.846Z,157.50
2019-01-19T10:32:38.831Z,157.50
2019-01-19T10:33:38.821Z,157.50
2019-01-19T10:34:38.820Z,163.13
2019-01-19T10:35:38.797Z,168.75
2019-01-19T10:36:38.782Z,168.75
2019-01-19T10:37:38.775Z,163.13
2019-01-19T10:38:38.759Z,168.75
2019-01-19T10:39:38.748Z,208.13
2019-01-19T10:40:38.734Z,219.38
2019-01-19T10:41:41.070Z,174.38
2019-01-19T10:42:38.710Z,196.88
2019-01-19T10:43:38.703Z,230.63
2019-01-19T10:44:38.686Z,219.38
2019-01-19T10:45:38.675Z,213.75
2019-01-19T10:46:38.661Z,202.50
2019-01-19T10:47:38.652Z,180.00
2019-01-19T10:48:38.640Z,180.00
2019-01-19T10:49:38.648Z,180.00
2019-01-19T10:50:38.614Z,180.00
2019-01-19T10:51:38.605Z,180.00
2019-01-19T10:52:38.591Z,180.00
2019-01-19T10:53:38.581Z,180.00
2019-01-19T10:54:38.567Z,180.00
2019-01-19T10:55:38.563Z,185.63
2019-01-19T10:56:38.544Z,185.63
2019-01-19T10:57:38.540Z,185.63
2019-01-19T10:58:38.524Z,191.25
2019-01-19T10:59:38.512Z,191.25
2019-01-19T11:00:38.500Z,202.50
2019-01-19T11:01:38.488Z,225.00
2019-01-19T11:02:38.474Z,213.75
2019-01-19T11:03:38.467Z,213.75
2019-01-19T11:04:38.453Z,230.63
2019-01-19T11:05:38.442Z,208.13
2019-01-19T11:06:38.428Z,213.75
2019-01-19T11:07:38.421Z,208.13
2019-01-19T11:08:38.407Z,208.13
2019-01-19T11:09:38.397Z,213.75
2019-01-19T11:10:38.383Z,213.75
2019-01-19T11:11:38.376Z,219.38
2019-01-19T11:12:38.362Z,236.25
2019-01-19T11:13:38.353Z,253.13
2019-01-19T11:14:38.340Z,489.38
2019-01-19T11:15:38.331Z,871.88
2019-01-19T11:16:38.318Z,1035.00
2019-01-19T11:17:38.309Z,680.63
2019-01-19T11:18:38.295Z,635.63
2019-01-19T11:19:38.288Z,489.38
2019-01-19T11:20:38.275Z,360.00
2019-01-19T11:21:38.266Z,568.13
2019-01-19T11:22:38.253Z,1181.25
2019-01-19T11:23:39.819Z,1541.25
2019-01-19T11:24:38.232Z,945.00
2019-01-19T11:25:38.223Z,461.25
2019-01-19T11:26:38.210Z,303.75
2019-01-19T11:27:38.205Z,320.63
2019-01-19T11:28:38.190Z,371.25
2019-01-19T11:29:38.185Z,354.38
2019-01-19T11:30:38.170Z,281.25
2019-01-19T11:31:38.160Z,298.13
2019-01-19T11:32:44.303Z,309.38
2019-01-19T11:33:38.138Z,315.00
2019-01-19T11:34:38.130Z,348.75
2019-01-19T11:35:38.117Z,450.00
2019-01-19T11:36:38.110Z,787.50
2019-01-19T11:37:38.097Z,1288.13
2019-01-19T11:38:38.094Z,1800.00
2019-01-19T11:39:38.077Z,1659.38
2019-01-19T11:40:38.071Z,1215.00
2019-01-19T11:41:38.055Z,1186.88
2019-01-19T11:42:38.048Z,1035.00
2019-01-19T11:43:38.036Z,1580.63
2019-01-19T11:44:38.030Z,1788.75
2019-01-19T11:45:38.017Z,1338.75
2019-01-19T11:46:38.009Z,900.00
2019-01-19T11:47:37.998Z,551.25
2019-01-19T11:48:37.993Z,680.63
2019-01-19T11:49:37.979Z,1293.75
2019-01-19T11:50:37.971Z,1243.13
2019-01-19T11:51:37.971Z,810.00
2019-01-19T11:52:37.954Z,410.63
2019-01-19T11:53:37.942Z,326.25
2019-01-19T11:54:37.936Z,303.75
2019-01-19T11:55:37.923Z,298.13
2019-01-19T11:56:37.918Z,326.25
2019-01-19T11:57:37.914Z,680.63
2019-01-19T11:58:37.897Z,1063.13
2019-01-19T11:59:37.887Z,911.25
2019-01-19T12:00:37.879Z,596.25
2019-01-19T12:01:37.868Z,416.25
2019-01-19T12:02:37.860Z,376.88
2019-01-19T12:03:37.849Z,376.88
2019-01-19T12:04:37.843Z,354.38
2019-01-19T12:05:37.830Z,337.50
2019-01-19T12:06:37.822Z,315.00
2019-01-19T12:07:37.812Z,303.75
2019-01-19T12:08:37.805Z,286.88
2019-01-19T12:09:37.794Z,292.50
2019-01-19T12:10:37.786Z,286.88
2019-01-19T12:11:37.774Z,286.88
2019-01-19T12:12:37.767Z,292.50
2019-01-19T12:13:37.757Z,298.13
2019-01-19T12:14:37.749Z,315.00
2019-01-19T12:15:37.737Z,320.63
2019-01-19T12:16:37.730Z,326.25
2019-01-19T12:17:37.717Z,326.25
2019-01-19T12:18:37.709Z,376.88
2019-01-19T12:19:37.699Z,348.75
2019-01-19T12:20:37.691Z,360.00
2019-01-19T12:21:37.679Z,360.00
2019-01-19T12:22:37.672Z,371.25
2019-01-19T12:23:37.660Z,360.00
2019-01-19T12:24:37.655Z,371.25
2019-01-19T12:25:37.641Z,410.63
2019-01-19T12:26:37.635Z,466.88
2019-01-19T12:27:37.623Z,500.63
2019-01-19T12:28:37.617Z,438.75
2019-01-19T12:29:37.605Z,495.00
2019-01-19T12:30:37.601Z,804.38
2019-01-19T12:31:37.588Z,725.63
2019-01-19T12:32:37.584Z,579.38
2019-01-19T12:33:37.570Z,495.00
2019-01-19T12:34:37.563Z,466.88
2019-01-19T12:35:37.565Z,455.63
2019-01-19T12:36:37.546Z,472.50
2019-01-19T12:37:37.534Z,478.13
2019-01-19T12:38:37.531Z,478.13
2019-01-19T12:39:37.521Z,495.00
2019-01-19T12:40:37.514Z,495.00
2019-01-19T12:41:37.499Z,483.75
2019-01-19T12:42:37.493Z,500.63
2019-01-19T12:43:37.484Z,641.25
2019-01-19T12:44:37.477Z,753.75
2019-01-19T12:45:37.466Z,765.00
2019-01-19T12:46:37.461Z,680.63
2019-01-19T12:47:37.450Z,556.88
2019-01-19T12:48:37.444Z,540.00
2019-01-19T12:49:37.434Z,534.38
2019-01-19T12:50:37.428Z,568.13
2019-01-19T12:51:37.419Z,787.50
2019-01-19T12:52:37.413Z,967.50
2019-01-19T12:53:37.404Z,1012.50
2019-01-19T12:54:37.396Z,990.00
2019-01-19T12:55:37.388Z,995.63
2019-01-19T12:56:37.381Z,1085.63
2019-01-19T12:57:37.571Z,1096.88
2019-01-19T12:58:37.368Z,1040.63
2019-01-19T12:59:37.356Z,1001.25